Time;durP1;ratioP1;P1;durP2;ratioP2;P2;SDS_P1;SDS_P2;PMS_P1;PMS_P2;Temp;Humidity;BMP_temperature;BMP_pressure;BME280_temperature;BME280_humidity;BME280_pressure;Samples;Min_cycle;Max_cycle;Signal;HPM_P1;HPM_P2
2022/09/02 00:01:41;;;;;;;3.20;1.55;;;19.80;99.70;;;;;;5072383;28;20025;-76
2022/09/02 00:04:20;;;;;;;2.72;1.35;;;19.80;99.90;;;;;;5072397;28;20039;-75
2022/09/02 00:06:48;;;;;;;3.28;1.20;;;19.80;99.90;;;;;;5066796;28;20028;-75
2022/09/02 00:09:18;;;;;;;2.42;1.25;;;19.80;99.90;;;;;;5072440;28;20024;-75
2022/09/02 00:11:47;;;;;;;3.95;1.10;;;19.70;99.90;;;;;;5072363;28;20099;-75
2022/09/02 00:14:16;;;;;;;2.67;0.95;;;19.70;99.90;;;;;;5072440;28;20029;-75
2022/09/02 00:16:49;;;;;;;3.10;1.20;;;19.60;99.90;;;;;;5072143;28;20029;-75
2022/09/02 00:19:16;;;;;;;2.67;1.42;;;19.60;99.90;;;;;;5072564;28;20032;-76
2022/09/02 00:21:42;;;;;;;3.38;1.25;;;19.60;99.90;;;;;;5054297;28;20028;-75
2022/09/02 00:24:08;;;;;;;4.63;1.25;;;19.60;99.90;;;;;;5072593;28;20035;-75
2022/09/02 00:26:33;;;;;;;6.15;1.40;;;19.60;99.90;;;;;;5072514;28;20543;-75
2022/09/02 00:29:00;;;;;;;6.88;1.13;;;19.60;99.90;;;;;;5072203;28;20032;-75
2022/09/02 00:31:27;;;;;;;3.92;1.30;;;19.70;99.90;;;;;;5072226;28;20028;-75
2022/09/02 00:33:53;;;;;;;2.78;1.40;;;19.70;99.90;;;;;;5072344;28;20031;-75
2022/09/02 00:36:20;;;;;;;1.77;0.95;;;19.70;99.90;;;;;;5072375;28;20544;-75
2022/09/02 00:38:46;;;;;;;2.65;1.08;;;19.70;99.90;;;;;;5072302;28;20028;-75
2022/09/02 00:41:13;;;;;;;2.55;1.13;;;19.70;99.90;;;;;;5054307;28;20473;-75
2022/09/02 00:43:50;;;;;;;2.20;1.00;;;19.70;99.90;;;;;;5071830;28;20034;-75
2022/09/02 00:46:18;;;;;;;3.22;1.20;;;19.70;99.90;;;;;;5072153;28;20479;-75
2022/09/02 00:49:04;;;;;;;2.25;1.20;;;19.70;99.90;;;;;;5071952;28;20031;-75
2022/09/02 00:51:36;;;;;;;4.40;1.10;;;19.80;99.50;;;;;;5072159;28;20021;-75
2022/09/02 00:54:05;;;;;;;2.55;1.17;;;19.90;99.30;;;;;;5072034;28;20110;-75
2022/09/02 00:56:32;;;;;;;6.47;1.30;;;19.80;99.40;;;;;;5063628;28;20028;-75
2022/09/02 00:59:00;;;;;;;5.25;1.10;;;19.80;99.20;;;;;;5071771;28;20495;-75
2022/09/02 01:01:26;;;;;;;3.35;1.65;;;19.90;99.00;;;;;;5072483;28;20033;-75
2022/09/02 01:03:52;;;;;;;2.78;1.15;;;19.80;99.20;;;;;;5075722;28;20493;-75
2022/09/02 01:06:23;;;;;;;4.35;1.77;;;19.90;99.10;;;;;;5075680;28;20031;-75
2022/09/02 01:08:58;;;;;;;3.75;1.30;;;19.90;98.80;;;;;;5075352;28;20028;-75
2022/09/02 01:11:37;;;;;;;4.28;1.20;;;19.90;98.90;;;;;;5075242;28;20020;-75
2022/09/02 01:14:03;;;;;;;3.33;1.40;;;19.90;98.60;;;;;;5075357;28;20028;-75
2022/09/02 01:16:40;;;;;;;4.45;1.30;;;19.90;98.20;;;;;;5075390;28;20062;-75
2022/09/02 01:19:12;;;;;;;6.07;1.50;;;20.00;98.30;;;;;;5075186;28;20081;-75
2022/09/02 01:21:37;;;;;;;3.92;1.42;;;19.90;98.10;;;;;;5075262;28;20033;-75
2022/09/02 01:24:04;;;;;;;3.20;1.48;;;19.90;98.00;;;;;;5075220;28;20029;-76
2022/09/02 01:26:31;;;;;;;3.70;1.40;;;20.00;98.00;;;;;;5075225;28;20074;-75
2022/09/02 01:28:56;;;;;;;3.10;1.20;;;20.10;97.90;;;;;;5075198;28;20455;-75
2022/09/02 01:31:22;;;;;;;3.33;1.42;;;20.10;98.00;;;;;;5074599;28;20077;-76
2022/09/02 01:33:48;;;;;;;3.60;1.58;;;20.00;98.10;;;;;;5074804;28;20486;-75
2022/09/02 01:36:13;;;;;;;4.90;1.40;;;20.00;98.30;;;;;;5074538;28;20470;-75
2022/09/02 01:38:39;;;;;;;3.50;1.45;;;19.90;98.20;;;;;;5074985;28;20024;-75
2022/09/02 01:41:05;;;;;;;4.28;1.40;;;19.90;98.60;;;;;;5074590;28;20462;-75
2022/09/02 01:43:31;;;;;;;3.58;1.20;;;19.80;98.80;;;;;;5074715;28;20094;-75
2022/09/02 01:45:58;;;;;;;6.45;1.38;;;19.80;98.90;;;;;;5074931;28;20025;-75
2022/09/02 01:48:24;;;;;;;1.75;1.10;;;19.70;99.90;;;;;;5074395;28;20051;-75
2022/09/02 01:50:57;;;;;;;2.75;1.20;;;19.60;99.90;;;;;;5074627;28;20379;-75
2022/09/02 01:53:23;;;;;;;5.30;1.75;;;19.50;99.90;;;;;;5074763;28;20028;-75
2022/09/02 01:55:49;;;;;;;4.82;1.27;;;19.50;99.90;;;;;;5074727;28;20529;-75
2022/09/02 01:58:15;;;;;;;4.13;1.40;;;19.60;99.90;;;;;;5074557;28;20040;-75
2022/09/02 02:00:40;;;;;;;2.70;1.17;;;19.60;99.90;;;;;;5078307;28;20448;-75
2022/09/02 02:03:06;;;;;;;4.43;1.30;;;19.50;99.90;;;;;;5077613;28;20032;-75
2022/09/02 02:05:32;;;;;;;7.57;1.20;;;19.60;99.90;;;;;;5074342;28;20103;-75
2022/09/02 02:07:58;;;;;;;4.93;1.55;;;19.60;99.90;;;;;;5074222;28;20044;-75
2022/09/02 02:10:24;;;;;;;5.40;1.60;;;19.60;99.90;;;;;;5074671;28;20033;-75
2022/09/02 02:12:50;;;;;;;5.00;1.80;;;19.50;99.90;;;;;;5073579;28;20029;-76
2022/09/02 02:15:18;;;;;;;2.80;1.20;;;19.50;99.90;;;;;;5073837;28;20032;-75
2022/09/02 02:17:43;;;;;;;3.75;1.67;;;19.40;99.90;;;;;;5074265;28;20032;-75
2022/09/02 02:20:12;;;;;;;4.57;1.50;;;19.40;99.90;;;;;;5074075;28;20433;-75
2022/09/02 02:22:38;;;;;;;3.47;1.77;;;19.40;99.90;;;;;;5073934;28;20086;-75
2022/09/02 02:25:05;;;;;;;2.75;1.20;;;19.50;99.90;;;;;;5074172;28;20047;-75
2022/09/02 02:27:31;;;;;;;4.10;1.77;;;19.30;99.90;;;;;;5073916;28;20025;-75
2022/09/02 02:29:57;;;;;;;3.58;1.35;;;19.30;99.90;;;;;;5073546;28;20070;-75
2022/09/02 02:32:24;;;;;;;4.40;1.63;;;19.40;99.90;;;;;;5073765;28;20039;-75
2022/09/02 02:34:50;;;;;;;3.53;1.48;;;19.40;99.90;;;;;;5073717;28;20020;-75
2022/09/02 02:37:16;;;;;;;3.00;1.40;;;19.40;99.90;;;;;;5074015;28;20024;-75
2022/09/02 02:39:42;;;;;;;4.28;1.80;;;19.40;99.90;;;;;;5073876;28;20033;-75
2022/09/02 02:42:11;;;;;;;2.92;1.77;;;19.30;99.90;;;;;;5073770;28;20064;-75
2022/09/02 02:44:38;;;;;;;3.90;1.92;;;19.20;99.90;;;;;;5073536;28;20056;-75
2022/09/02 02:47:04;;;;;;;6.47;1.80;;;19.20;99.90;;;;;;5073797;28;20378;-75
2022/09/02 02:49:29;;;;;;;3.38;1.50;;;19.20;99.90;;;;;;5073633;28;20103;-75
2022/09/02 02:51:55;;;;;;;6.22;1.75;;;19.10;99.90;;;;;;5073318;28;20352;-75
2022/09/02 02:54:21;;;;;;;8.10;2.42;;;19.10;99.90;;;;;;5073082;28;20028;-75
2022/09/02 02:56:47;;;;;;;3.90;1.65;;;19.10;99.90;;;;;;5073077;28;20075;-75
2022/09/02 02:59:13;;;;;;;5.28;1.50;;;19.10;99.90;;;;;;5073315;28;20108;-75
2022/09/02 03:01:39;;;;;;;4.57;2.00;;;19.10;99.90;;;;;;5073104;28;20508;-73
2022/09/02 03:04:06;;;;;;;6.80;1.50;;;19.10;99.90;;;;;;5056141;28;20021;-74
2022/09/02 03:06:31;;;;;;;3.10;1.70;;;19.10;99.90;;;;;;5047311;28;20452;-74
2022/09/02 03:08:59;;;;;;;3.13;1.90;;;19.00;99.90;;;;;;5047120;28;20036;-74
2022/09/02 03:11:26;;;;;;;5.13;1.90;;;19.00;99.90;;;;;;5046986;28;20108;-74
2022/09/02 03:13:52;;;;;;;3.28;1.65;;;18.80;99.90;;;;;;5046799;28;20406;-74
2022/09/02 03:16:18;;;;;;;4.82;2.40;;;18.90;99.90;;;;;;5047054;28;20112;-74
2022/09/02 03:18:45;;;;;;;5.70;2.20;;;18.80;99.90;;;;;;5044750;28;20167;-74
2022/09/02 03:21:12;;;;;;;2.67;1.60;;;18.90;99.90;;;;;;5044108;28;20698;-74
2022/09/02 03:23:38;;;;;;;3.63;1.80;;;18.80;99.90;;;;;;5046561;28;20025;-74
2022/09/02 03:26:12;;;;;;;7.03;1.80;;;18.80;99.90;;;;;;5047132;28;20173;-74
2022/09/02 03:28:39;;;;;;;8.05;2.58;;;18.80;99.90;;;;;;5047091;28;20050;-74
2022/09/02 03:31:05;;;;;;;3.55;1.88;;;18.60;99.90;;;;;;5047625;28;20078;-74
2022/09/02 03:33:31;;;;;;;5.05;2.30;;;18.60;99.90;;;;;;5047607;28;20246;-74
2022/09/02 03:35:56;;;;;;;5.55;2.25;;;18.50;99.90;;;;;;5047485;28;20690;-74
2022/09/02 03:38:22;;;;;;;6.75;2.80;;;18.30;99.90;;;;;;5047643;28;20097;-74
2022/09/02 03:40:48;;;;;;;5.93;2.80;;;18.30;99.90;;;;;;5046983;28;20025;-74
2022/09/02 03:43:15;;;;;;;6.68;2.63;;;18.20;99.90;;;;;;5047107;28;20037;-73
2022/09/02 03:45:40;;;;;;;3.80;2.35;;;18.20;99.90;;;;;;5047493;28;20166;-74
2022/09/02 03:48:07;;;;;;;4.18;2.63;;;18.10;99.90;;;;;;5047385;28;20120;-74
2022/09/02 03:50:40;;;;;;;3.80;2.25;;;18.20;99.90;;;;;;5047573;28;20380;-74
2022/09/02 03:53:07;;;;;;;8.05;3.10;;;18.20;99.90;;;;;;5046889;28;20021;-74
2022/09/02 03:55:35;;;;;;;7.45;2.80;;;18.20;99.90;;;;;;5047211;28;20017;-74
2022/09/02 03:58:00;;;;;;;5.30;2.60;;;18.10;99.90;;;;;;5045727;28;20558;-74
2022/09/02 04:00:32;;;;;;;5.85;2.60;;;18.00;99.90;;;;;;5044069;28;20074;-74
2022/09/02 04:03:00;;;;;;;3.92;2.40;;;18.00;99.90;;;;;;5043865;28;20475;-74
2022/09/02 04:05:26;;;;;;;4.72;2.75;;;17.90;99.90;;;;;;5044025;28;20035;-74
2022/09/02 04:07:52;;;;;;;5.43;2.67;;;17.90;99.90;;;;;;5044265;28;20392;-74
2022/09/02 04:10:20;;;;;;;5.97;2.80;;;18.00;99.90;;;;;;5043550;28;20025;-74
2022/09/02 04:12:46;;;;;;;6.32;3.30;;;18.00;99.90;;;;;;5043471;28;20055;-74
2022/09/02 04:15:12;;;;;;;5.57;4.15;;;18.00;99.90;;;;;;5043872;28;20028;-74
2022/09/02 04:17:40;;;;;;;5.10;3.38;;;17.90;99.90;;;;;;5044143;28;20111;-74
2022/09/02 04:20:08;;;;;;;6.03;3.58;;;17.90;99.90;;;;;;5043574;28;20029;-74
2022/09/02 04:22:34;;;;;;;7.15;4.07;;;17.90;99.90;;;;;;5043341;28;20025;-74
2022/09/02 04:25:00;;;;;;;4.97;3.72;;;17.80;99.90;;;;;;5043697;28;20102;-74
2022/09/02 04:27:26;;;;;;;6.40;4.50;;;17.80;99.90;;;;;;5043728;28;20036;-74
2022/09/02 04:29:52;;;;;;;5.80;4.50;;;17.80;99.90;;;;;;5043983;28;20040;-73
2022/09/02 04:32:18;;;;;;;7.18;5.05;;;17.80;99.90;;;;;;5043030;28;20017;-74
2022/09/02 04:34:44;;;;;;;8.38;5.68;;;17.70;99.90;;;;;;5043703;28;20390;-74
2022/09/02 04:37:12;;;;;;;8.10;5.78;;;17.60;99.90;;;;;;5044907;28;20111;-73
2022/09/02 04:39:38;;;;;;;8.05;5.68;;;17.50;99.90;;;;;;5047681;28;20112;-73
2022/09/02 04:42:04;;;;;;;9.23;6.88;;;17.60;99.90;;;;;;5047740;28;20111;-74
2022/09/02 04:44:29;;;;;;;8.55;5.90;;;17.60;99.90;;;;;;5047447;28;20025;-74
2022/09/02 04:46:55;;;;;;;7.65;4.95;;;17.70;99.90;;;;;;5029408;28;20086;-74
2022/09/02 04:49:21;;;;;;;7.15;4.43;;;17.70;99.90;;;;;;5047460;28;20037;-74
2022/09/02 04:51:47;;;;;;;6.53;4.88;;;17.70;99.90;;;;;;5047318;28;20382;-74
2022/09/02 04:54:12;;;;;;;6.05;4.95;;;17.80;99.90;;;;;;5047639;28;20025;-73
2022/09/02 04:56:38;;;;;;;6.60;4.43;;;17.80;99.90;;;;;;5047355;28;20060;-74
2022/09/02 04:59:04;;;;;;;7.60;4.53;;;17.80;99.90;;;;;;5047290;28;20037;-74
2022/09/02 05:01:34;;;;;;;10.00;5.00;;;17.90;99.90;;;;;;5047477;28;20033;-74
2022/09/02 05:04:01;;;;;;;7.85;4.47;;;17.80;99.90;;;;;;5047275;28;20071;-74
2022/09/02 05:06:27;;;;;;;7.10;5.57;;;17.80;99.90;;;;;;5047588;28;20083;-74
2022/09/02 05:08:55;;;;;;;7.57;4.88;;;17.90;99.90;;;;;;5047105;28;20033;-74
2022/09/02 05:11:27;;;;;;;7.43;4.38;;;17.90;99.90;;;;;;5046882;28;20033;-74
2022/09/02 05:13:54;;;;;;;5.70;4.28;;;18.00;99.90;;;;;;5046992;28;20017;-74
2022/09/02 05:16:22;;;;;;;6.13;4.22;;;17.90;99.90;;;;;;5047272;28;20619;-74
2022/09/02 05:18:49;;;;;;;5.75;4.50;;;17.90;99.90;;;;;;5047002;28;20029;-73
2022/09/02 05:21:15;;;;;;;5.47;3.80;;;17.90;99.90;;;;;;5046898;28;20029;-73
2022/09/02 05:23:41;;;;;;;7.55;4.50;;;18.00;99.90;;;;;;5047239;28;20029;-73
2022/09/02 05:26:08;;;;;;;7.10;4.13;;;18.00;99.90;;;;;;5046922;28;20036;-74
2022/09/02 05:28:34;;;;;;;5.10;3.58;;;18.00;99.90;;;;;;5047015;28;20040;-74
2022/09/02 05:31:05;;;;;;;5.65;3.38;;;17.90;99.90;;;;;;5046632;28;20029;-74
2022/09/02 05:33:39;;;;;;;4.63;3.45;;;17.90;99.90;;;;;;5047017;28;20027;-74
2022/09/02 05:36:06;;;;;;;4.93;3.50;;;18.10;99.90;;;;;;5046860;28;20112;-74
2022/09/02 05:38:32;;;;;;;6.57;3.80;;;18.10;99.90;;;;;;5046310;28;20037;-73
2022/09/02 05:40:58;;;;;;;6.75;3.60;;;18.00;99.90;;;;;;5046487;28;20099;-74
2022/09/02 05:43:25;;;;;;;7.05;4.72;;;18.10;99.90;;;;;;5046923;28;20080;-73
2022/09/02 05:45:50;;;;;;;4.80;3.15;;;18.00;99.90;;;;;;5046941;28;20025;-74
2022/09/02 05:51:04;;;;;;;6.75;3.63;;;18.20;99.90;;;;;;5046386;28;20047;-73
2022/09/02 05:53:31;;;;;;;5.15;3.38;;;18.20;99.90;;;;;;5046438;28;20120;-74
2022/09/02 05:55:57;;;;;;;5.88;2.88;;;18.20;99.90;;;;;;5046371;28;20033;-73
2022/09/02 05:58:23;;;;;;;5.38;3.10;;;18.20;99.90;;;;;;5046198;28;20287;-74
2022/09/02 06:00:49;;;;;;;4.95;3.03;;;18.20;99.90;;;;;;5046263;28;20698;-74
2022/09/02 06:03:18;;;;;;;4.45;2.47;;;18.30;99.90;;;;;;5046156;28;20116;-74
2022/09/02 06:05:56;;;;;;;5.93;3.10;;;18.20;99.90;;;;;;5046212;28;20024;-74
2022/09/02 06:08:22;;;;;;;4.35;2.67;;;18.30;99.90;;;;;;5046630;28;20110;-74
2022/09/02 06:10:47;;;;;;;5.03;2.78;;;18.30;99.90;;;;;;5045879;28;20036;-74
2022/09/02 06:13:14;;;;;;;5.30;2.38;;;18.30;99.90;;;;;;5046010;28;20025;-73
2022/09/02 06:15:43;;;;;;;5.05;2.60;;;18.30;99.90;;;;;;5045936;28;20566;-74
2022/09/02 06:18:10;;;;;;;4.35;2.35;;;18.30;99.90;;;;;;5046133;28;20440;-73
2022/09/02 06:20:40;;;;;;;4.60;2.30;;;18.20;99.90;;;;;;5046197;28;20039;-74
2022/09/02 06:23:06;;;;;;;4.28;2.05;;;18.20;99.90;;;;;;5046101;28;20072;-73
2022/09/02 06:25:35;;;;;;;3.22;1.70;;;18.40;99.90;;;;;;5045366;28;20056;-74
2022/09/02 06:28:00;;;;;;;4.70;2.30;;;18.40;99.90;;;;;;5027747;28;20025;-74
2022/09/02 06:30:26;;;;;;;2.95;1.77;;;18.50;99.90;;;;;;5046142;28;20074;-74
2022/09/02 06:32:52;;;;;;;3.47;2.13;;;18.60;99.90;;;;;;5045782;28;20032;-73
2022/09/02 06:35:17;;;;;;;2.85;1.55;;;18.60;99.90;;;;;;5045699;28;20091;-74
2022/09/02 06:37:43;;;;;;;4.53;1.92;;;18.80;99.90;;;;;;5046189;28;20025;-74
2022/09/02 06:40:10;;;;;;;4.38;2.20;;;18.90;99.90;;;;;;5045834;28;20021;-74
2022/09/02 06:42:36;;;;;;;6.50;2.65;;;19.00;99.90;;;;;;5045655;28;20120;-74
2022/09/02 06:45:02;;;;;;;5.80;3.10;;;19.00;99.90;;;;;;5045893;28;20586;-74
2022/09/02 06:47:30;;;;;;;5.65;2.30;;;19.00;99.90;;;;;;5045862;28;20033;-74
2022/09/02 06:49:56;;;;;;;7.35;3.00;;;18.90;99.90;;;;;;5045412;28;20024;-74
2022/09/02 06:52:22;;;;;;;5.80;2.35;;;19.00;99.90;;;;;;5045168;28;20314;-74
2022/09/02 06:54:49;;;;;;;4.15;2.40;;;19.00;99.90;;;;;;5045674;28;20032;-73
2022/09/02 06:57:15;;;;;;;5.85;2.92;;;19.00;99.90;;;;;;5045252;28;20048;-74
2022/09/02 06:59:41;;;;;;;5.28;2.88;;;19.20;99.90;;;;;;5045090;28;20167;-74
2022/09/02 07:02:07;;;;;;;5.18;2.75;;;19.10;99.90;;;;;;5044920;28;20031;-74
2022/09/02 07:07:17;;;;;;;4.75;2.72;;;19.30;99.90;;;;;;5044653;28;20044;-74
2022/09/02 07:09:43;;;;;;;5.20;2.80;;;19.30;99.90;;;;;;5027145;28;20044;-74
2022/09/02 07:12:09;;;;;;;7.55;3.88;;;19.30;99.90;;;;;;5045071;28;20387;-73
2022/09/02 07:14:40;;;;;;;6.30;2.85;;;19.50;99.90;;;;;;5045499;28;20025;-74
2022/09/02 07:17:07;;;;;;;5.47;2.78;;;19.60;99.90;;;;;;5045105;28;20029;-74
2022/09/02 07:19:32;;;;;;;6.32;2.50;;;19.80;99.90;;;;;;5044833;28;20078;-74
2022/09/02 07:21:58;;;;;;;4.57;2.30;;;19.90;99.90;;;;;;5044806;28;20387;-74
2022/09/02 07:24:24;;;;;;;5.90;2.90;;;19.80;99.90;;;;;;5045237;28;20036;-74
2022/09/02 07:26:50;;;;;;;5.05;2.38;;;19.50;99.90;;;;;;5045083;28;20028;-74
2022/09/02 07:29:16;;;;;;;6.97;2.60;;;19.70;99.90;;;;;;5045039;28;20029;-74
2022/09/02 07:31:45;;;;;;;6.30;2.42;;;19.90;99.90;;;;;;5044567;28;20036;-74
2022/09/02 07:34:11;;;;;;;6.38;2.55;;;19.90;99.90;;;;;;5044535;28;20033;-74
2022/09/02 07:36:38;;;;;;;4.22;2.38;;;20.10;99.90;;;;;;5044545;28;20029;-74
2022/09/02 07:39:06;;;;;;;4.28;1.90;;;20.20;99.90;;;;;;5045461;28;20033;-74
2022/09/02 07:41:32;;;;;;;3.90;2.00;;;20.10;99.90;;;;;;5048126;28;20033;-74
2022/09/02 07:43:58;;;;;;;4.68;2.13;;;20.20;99.90;;;;;;5048075;28;20544;-74
2022/09/02 07:46:23;;;;;;;3.88;2.20;;;20.30;99.90;;;;;;5047613;28;20559;-74
2022/09/02 07:48:49;;;;;;;5.40;2.45;;;20.40;99.90;;;;;;5047394;28;20033;-74
2022/09/02 07:51:17;;;;;;;5.70;2.35;;;20.20;99.90;;;;;;5047282;28;20136;-74
2022/09/02 07:53:44;;;;;;;4.25;2.20;;;20.20;99.90;;;;;;5047592;28;20033;-74
2022/09/02 07:56:12;;;;;;;7.55;2.60;;;20.40;99.90;;;;;;5047649;28;20356;-74
2022/09/02 07:58:39;;;;;;;4.20;2.08;;;20.40;99.90;;;;;;5047419;28;20135;-74
2022/09/02 08:01:05;;;;;;;5.03;2.08;;;20.40;99.90;;;;;;5047213;28;20467;-74
2022/09/02 08:03:30;;;;;;;5.50;1.85;;;20.40;99.90;;;;;;5047366;28;20037;-74
2022/09/02 08:05:56;;;;;;;4.93;2.05;;;20.50;99.90;;;;;;5047161;28;20545;-74
2022/09/02 08:08:25;;;;;;;4.43;2.10;;;20.40;99.90;;;;;;5047327;28;20029;-74
2022/09/02 08:10:51;;;;;;;4.88;2.10;;;20.50;99.90;;;;;;5047228;28;20013;-74
2022/09/02 08:13:17;;;;;;;3.55;1.98;;;20.50;99.90;;;;;;5050740;28;20027;-74
2022/09/02 08:15:44;;;;;;;7.22;2.30;;;20.50;99.90;;;;;;5050971;28;20048;-74
2022/09/02 08:18:10;;;;;;;5.00;2.25;;;20.40;99.90;;;;;;5051425;28;20037;-74
2022/09/02 08:20:36;;;;;;;4.97;3.00;;;20.50;99.90;;;;;;5051439;28;20060;-74
2022/09/02 08:23:05;;;;;;;5.82;2.20;;;20.60;99.90;;;;;;5051083;28;20068;-74
2022/09/02 08:25:32;;;;;;;5.57;2.00;;;20.60;99.90;;;;;;5051353;28;20036;-74
2022/09/02 08:27:58;;;;;;;4.05;2.10;;;20.60;99.90;;;;;;5051199;28;20576;-74
2022/09/02 08:30:24;;;;;;;3.55;2.15;;;20.40;99.90;;;;;;5050641;28;20024;-74
2022/09/02 08:32:49;;;;;;;7.78;2.50;;;20.40;99.90;;;;;;5050605;28;20356;-74
2022/09/02 08:35:15;;;;;;;5.82;2.75;;;20.70;99.90;;;;;;5050705;28;20060;-74
2022/09/02 08:37:41;;;;;;;5.45;2.08;;;20.60;99.90;;;;;;5050759;28;20055;-74
2022/09/02 08:40:14;;;;;;;5.32;2.22;;;20.60;99.90;;;;;;5050816;28;20036;-74
2022/09/02 08:42:48;;;;;;;6.13;2.15;;;20.80;99.90;;;;;;5050699;28;20047;-74
2022/09/02 08:45:23;;;;;;;10.23;2.42;;;20.70;99.90;;;;;;5050946;28;20036;-74
2022/09/02 08:47:57;;;;;;;5.18;2.20;;;20.70;99.90;;;;;;5050693;28;20020;-74
2022/09/02 08:50:23;;;;;;;5.60;2.47;;;21.00;99.90;;;;;;5051177;28;20039;-74
2022/09/02 08:52:55;;;;;;;5.10;2.08;;;22.00;99.90;;;;;;5050373;28;20021;-74
2022/09/02 08:55:26;;;;;;;4.07;2.15;;;23.30;99.90;;;;;;5050051;28;20075;-74
2022/09/02 08:57:55;;;;;;;3.70;2.42;;;23.90;99.50;;;;;;5050335;28;20040;-74
2022/09/02 09:00:21;;;;;;;6.32;2.47;;;23.00;99.90;;;;;;5050669;28;20031;-74
2022/09/02 09:02:56;;;;;;;5.70;2.28;;;23.60;99.30;;;;;;5050519;28;20108;-74
2022/09/02 09:05:32;;;;;;;5.00;2.05;;;23.00;99.60;;;;;;5050763;28;20430;-74
2022/09/02 09:08:36;;;;;;;3.63;1.95;;;22.00;99.90;;;;;;5050413;28;20067;-74
2022/09/02 09:11:11;;;;;;;4.50;1.75;;;21.70;99.90;;;;;;5050267;28;20470;-74
2022/09/02 09:14:04;;;;;;;5.60;2.08;;;21.80;99.90;;;;;;5050175;28;20048;-74
2022/09/02 09:16:39;;;;;;;3.90;1.70;;;22.40;99.90;;;;;;5049029;28;20406;-74
2022/09/02 09:19:15;;;;;;;5.57;2.05;;;23.00;99.90;;;;;;5047241;28;20029;-74
2022/09/02 09:21:42;;;;;;;4.22;1.80;;;22.80;99.40;;;;;;5048263;28;20029;-74
2022/09/02 09:24:25;;;;;;;3.83;1.58;;;22.70;99.90;;;;;;5049714;28;20111;-74
2022/09/02 09:26:53;;;;;;;4.88;1.85;;;22.60;98.00;;;;;;5049871;28;20032;-74
2022/09/02 09:29:18;;;;;;;5.93;1.65;;;22.10;99.00;;;;;;5049857;28;20066;-74
2022/09/02 09:31:50;;;;;;;4.28;1.55;;;21.80;99.40;;;;;;5049950;28;20029;-74
2022/09/02 09:34:16;;;;;;;3.42;1.60;;;21.80;99.90;;;;;;5048861;28;20397;-74
2022/09/02 09:36:43;;;;;;;3.30;1.60;;;21.70;99.50;;;;;;5048409;28;20037;-74
2022/09/02 09:39:28;;;;;;;2.33;1.38;;;21.70;98.40;;;;;;5049680;28;20021;-74
2022/09/02 09:42:00;;;;;;;3.03;1.38;;;21.80;96.80;;;;;;5049802;28;20112;-74
2022/09/02 09:44:28;;;;;;;2.55;1.40;;;21.90;97.20;;;;;;5049936;28;20033;-74
2022/09/02 09:47:04;;;;;;;2.72;1.73;;;21.80;97.20;;;;;;5050076;28;20252;-74
2022/09/02 09:49:32;;;;;;;5.15;2.63;;;21.70;95.80;;;;;;5050232;28;20163;-74
2022/09/02 09:51:58;;;;;;;2.47;1.38;;;21.60;97.20;;;;;;5049445;28;20040;-74
2022/09/02 09:54:26;;;;;;;3.28;1.70;;;21.70;97.40;;;;;;5049493;28;20059;-74
2022/09/02 09:56:53;;;;;;;2.67;1.30;;;21.60;97.90;;;;;;5049834;28;20040;-74
2022/09/02 09:59:46;;;;;;;3.50;1.40;;;21.50;96.80;;;;;;5049717;28;20040;-74
2022/09/02 10:02:23;;;;;;;4.63;1.52;;;21.40;96.00;;;;;;5049571;28;20475;-74
2022/09/02 10:04:51;;;;;;;4.82;1.60;;;21.40;96.20;;;;;;5049507;28;20090;-74
2022/09/02 10:07:40;;;;;;;3.83;1.50;;;21.50;97.60;;;;;;5049351;28;20028;-74
2022/09/02 10:10:26;;;;;;;2.80;1.63;;;21.60;97.30;;;;;;5049463;28;20387;-74
2022/09/02 10:12:56;;;;;;;4.70;1.75;;;21.80;97.20;;;;;;5049307;28;20418;-74
2022/09/02 10:15:57;;;;;;;4.57;1.60;;;21.90;97.50;;;;;;5049244;28;20361;-74
2022/09/02 10:18:34;;;;;;;3.33;1.77;;;22.10;97.60;;;;;;5044856;28;20376;-74
2022/09/02 10:21:26;;;;;;;3.13;1.45;;;22.20;97.70;;;;;;5048891;28;20020;-74
2022/09/02 10:24:27;;;;;;;2.05;1.38;;;22.40;97.20;;;;;;5019880;28;20045;-74
2022/09/02 10:26:57;;;;;;;3.03;1.55;;;22.50;96.30;;;;;;5045469;28;20434;-74
2022/09/02 10:29:42;;;;;;;2.20;1.30;;;22.50;96.20;;;;;;5048999;28;20029;-74
2022/09/02 10:32:10;;;;;;;4.60;1.50;;;22.60;96.60;;;;;;5048769;28;20029;-74
2022/09/02 10:34:45;;;;;;;4.50;1.92;;;22.50;96.00;;;;;;5047934;28;20029;-74
2022/09/02 10:37:18;;;;;;;4.70;1.50;;;22.40;96.30;;;;;;5048557;28;20028;-74
2022/09/02 10:40:02;;;;;;;3.35;1.40;;;22.20;96.00;;;;;;5048776;28;20180;-74
2022/09/02 10:43:01;;;;;;;6.85;1.90;;;22.20;96.50;;;;;;5048387;28;20083;-74
2022/09/02 10:45:45;;;;;;;3.75;1.40;;;22.40;97.10;;;;;;5048564;28;20029;-74
2022/09/02 10:48:25;;;;;;;3.53;1.60;;;22.50;97.30;;;;;;5048599;28;20438;-74
2022/09/02 10:51:32;;;;;;;3.50;1.58;;;22.70;97.20;;;;;;5048671;28;20029;-74
2022/09/02 10:54:03;;;;;;;3.75;1.70;;;22.80;96.00;;;;;;4986248;28;20030;-74
2022/09/02 10:56:39;;;;;;;4.85;1.40;;;23.10;95.70;;;;;;5040165;28;20119;-74
2022/09/02 10:59:17;;;;;;;2.92;1.30;;;23.40;95.90;;;;;;5047972;28;20033;-74
2022/09/02 11:01:58;;;;;;;4.95;1.58;;;23.30;94.80;;;;;;5048185;28;20096;-74
2022/09/02 11:04:36;;;;;;;2.42;1.33;;;23.50;94.70;;;;;;5047945;28;20479;-74
2022/09/02 11:07:04;;;;;;;2.38;1.50;;;23.60;95.10;;;;;;5048224;28;20017;-74
2022/09/02 11:09:44;;;;;;;4.82;1.52;;;23.50;93.90;;;;;;5048215;28;20151;-74
2022/09/02 11:12:22;;;;;;;5.22;1.63;;;23.70;93.90;;;;;;5048047;28;20025;-74
2022/09/02 11:15:06;;;;;;;2.28;1.40;;;23.70;93.40;;;;;;5048130;28;20025;-74
2022/09/02 11:17:42;;;;;;;4.35;1.48;;;24.10;94.60;;;;;;5047902;28;20108;-74
2022/09/02 11:20:46;;;;;;;4.00;1.58;;;24.20;93.50;;;;;;5048071;28;20032;-74
2022/09/02 11:23:33;;;;;;;5.40;1.50;;;24.30;93.10;;;;;;5024336;28;20071;-74
2022/09/02 11:26:15;;;;;;;2.85;1.52;;;24.40;93.30;;;;;;5048185;28;20036;-74
2022/09/02 11:29:28;;;;;;;2.25;1.17;;;24.60;93.20;;;;;;5048381;28;20068;-74
2022/09/02 11:32:22;;;;;;;5.10;1.67;;;24.90;93.60;;;;;;4998767;28;20059;-74
2022/09/02 11:34:54;;;;;;;3.63;1.50;;;24.70;92.80;;;;;;5047734;28;20091;-74
2022/09/02 11:37:38;;;;;;;2.70;1.48;;;24.60;92.40;;;;;;5047962;28;20490;-74
2022/09/02 11:40:27;;;;;;;;;;;24.70;92.30;;;;;;5047958;28;20067;-74
2022/09/02 11:43:18;;;;;;;2.53;1.30;;;24.60;92.30;;;;;;5039428;28;19935;-74
2022/09/02 11:46:13;;;;;;;8.55;2.05;;;24.60;92.70;;;;;;5047719;28;20072;-74
2022/09/02 11:49:20;;;;;;;3.63;1.42;;;24.60;93.10;;;;;;5047499;28;20502;-74
2022/09/02 11:52:15;;;;;;;4.00;1.52;;;24.50;92.70;;;;;;4998099;28;20106;-74
2022/09/02 11:54:45;;;;;;;3.88;1.55;;;24.50;93.20;;;;;;5047257;28;20025;-74
2022/09/02 11:57:19;;;;;;;3.25;1.33;;;24.50;93.10;;;;;;5047418;28;20045;-74
2022/09/02 11:59:50;;;;;;;4.32;1.48;;;24.60;93.10;;;;;;5047516;28;20433;-74
2022/09/02 12:02:37;;;;;;;3.85;1.58;;;24.70;92.70;;;;;;5047619;28;20052;-74
2022/09/02 12:05:28;;;;;;;3.83;1.45;;;24.50;92.50;;;;;;5047336;28;20060;-74
2022/09/02 12:07:59;;;;;;;3.72;1.40;;;24.50;92.80;;;;;;5047381;28;20425;-74
2022/09/02 12:10:43;;;;;;;2.47;1.20;;;24.80;92.50;;;;;;5047314;28;20017;-74
2022/09/02 12:13:31;;;;;;;2.55;1.35;;;24.90;92.90;;;;;;5047443;28;20021;-74
2022/09/02 12:16:11;;;;;;;2.40;1.30;;;25.10;92.60;;;;;;5036600;28;20126;-74
2022/09/02 12:18:41;;;;;;;3.40;1.25;;;25.20;92.40;;;;;;5047399;28;20036;-75
2022/09/02 12:21:10;;;;;;;3.63;1.20;;;25.00;92.20;;;;;;5047257;28;20025;-74
2022/09/02 12:23:48;;;;;;;3.20;1.60;;;24.90;92.10;;;;;;5046720;28;20037;-75
2022/09/02 12:26:15;;;;;;;4.57;1.75;;;25.20;92.60;;;;;;5047589;28;20052;-75
2022/09/02 12:28:45;;;;;;;4.18;1.13;;;25.30;92.20;;;;;;5047587;28;20491;-74
2022/09/02 12:31:32;;;;;;;4.47;1.08;;;25.30;91.40;;;;;;5047499;28;20066;-74
2022/09/02 12:34:01;;;;;;;3.67;1.25;;;25.00;91.30;;;;;;5047225;28;20452;-74
2022/09/02 12:36:36;;;;;;;4.40;1.30;;;24.70;91.90;;;;;;5047016;28;20112;-74
2022/09/02 12:39:24;;;;;;;3.13;1.60;;;24.80;92.30;;;;;;5047378;28;20388;-74
2022/09/02 12:41:59;;;;;;;4.13;1.27;;;25.00;92.80;;;;;;5046906;28;20279;-74
2022/09/02 12:44:43;;;;;;;2.75;1.42;;;25.00;92.20;;;;;;5046938;28;20094;-75
2022/09/02 12:47:38;;;;;;;1.88;1.17;;;24.90;91.80;;;;;;5047387;28;20025;-74
2022/09/02 12:50:17;;;;;;;11.45;1.73;;;25.00;92.70;;;;;;5047479;28;20034;-74
2022/09/02 12:52:46;;;;;;;4.15;1.23;;;25.30;93.10;;;;;;5046841;28;20095;-74
2022/09/02 12:55:21;;;;;;;3.50;1.52;;;25.30;92.60;;;;;;5047023;28;20025;-74
2022/09/02 12:57:53;;;;;;;2.92;1.10;;;25.30;93.20;;;;;;5047693;28;20049;-74
2022/09/02 13:00:57;;;;;;;5.60;1.60;;;25.20;92.00;;;;;;5050889;28;20479;-74
2022/09/02 13:03:36;;;;;;;2.80;1.70;;;25.30;92.80;;;;;;5040383;28;20449;-74
2022/09/02 13:06:25;;;;;;;3.97;1.35;;;25.40;92.30;;;;;;5050917;28;20186;-74
2022/09/02 13:09:11;;;;;;;2.92;1.17;;;25.20;92.30;;;;;;5050936;28;20032;-74
2022/09/02 13:12:05;;;;;;;2.45;1.20;;;25.40;92.90;;;;;;5050123;28;20387;-74
2022/09/02 13:14:48;;;;;;;3.63;1.38;;;25.60;92.80;;;;;;5050384;28;20025;-74